sensor_id;sensor_type;location;lat;lon;timestamp;pressure;altitude;pressure_sealevel;temperature;humidity
250;BME280;109;19.806;-70.704;2022-12-24T00:00:01;101609.50;;;24.81;65.96
250;BME280;109;19.806;-70.704;2022-12-24T00:02:33;101611.97;;;24.86;65.67
250;BME280;109;19.806;-70.704;2022-12-24T00:04:59;101619.13;;;24.85;65.81
250;BME280;109;19.806;-70.704;2022-12-24T00:07:26;101621.09;;;24.82;65.54
250;BME280;109;19.806;-70.704;2022-12-24T00:09:52;101613.88;;;24.84;65.38
250;BME280;109;19.806;-70.704;2022-12-24T00:12:18;101605.03;;;24.82;65.44
250;BME280;109;19.806;-70.704;2022-12-24T00:14:45;101610.56;;;24.77;65.80
250;BME280;109;19.806;-70.704;2022-12-24T00:17:12;101609.34;;;24.84;65.61
250;BME280;109;19.806;-70.704;2022-12-24T00:19:38;101623.72;;;24.83;65.81
250;BME280;109;19.806;-70.704;2022-12-24T00:22:04;101626.56;;;24.79;65.50
250;BME280;109;19.806;-70.704;2022-12-24T00:24:38;101633.78;;;24.77;65.60
250;BME280;109;19.806;-70.704;2022-12-24T00:27:04;101636.47;;;24.77;65.63
250;BME280;109;19.806;-70.704;2022-12-24T00:29:37;101639.13;;;24.77;65.84
250;BME280;109;19.806;-70.704;2022-12-24T00:32:03;101643.09;;;24.66;65.56
250;BME280;109;19.806;-70.704;2022-12-24T00:34:48;101643.31;;;24.60;65.68
250;BME280;109;19.806;-70.704;2022-12-24T00:37:29;101663.56;;;24.67;65.86
250;BME280;109;19.806;-70.704;2022-12-24T00:39:55;101661.00;;;24.64;65.89
250;BME280;109;19.806;-70.704;2022-12-24T00:42:35;101655.59;;;24.66;65.92
250;BME280;109;19.806;-70.704;2022-12-24T00:45:01;101659.31;;;24.62;65.69
250;BME280;109;19.806;-70.704;2022-12-24T00:47:41;101665.44;;;24.65;65.83
250;BME280;109;19.806;-70.704;2022-12-24T00:50:08;101667.13;;;24.68;66.14
250;BME280;109;19.806;-70.704;2022-12-24T00:52:49;101664.38;;;24.69;66.01
250;BME280;109;19.806;-70.704;2022-12-24T00:55:15;101660.91;;;24.67;65.94
250;BME280;109;19.806;-70.704;2022-12-24T00:57:55;101671.72;;;24.64;66.08
250;BME280;109;19.806;-70.704;2022-12-24T01:00:29;101671.94;;;24.58;65.98
250;BME280;109;19.806;-70.704;2022-12-24T01:03:09;101672.06;;;24.55;66.32
250;BME280;109;19.806;-70.704;2022-12-24T01:05:35;101671.00;;;24.59;66.13
250;BME280;109;19.806;-70.704;2022-12-24T01:08:16;101671.38;;;24.50;66.09
250;BME280;109;19.806;-70.704;2022-12-24T01:10:42;101681.16;;;24.51;66.31
250;BME280;109;19.806;-70.704;2022-12-24T01:13:22;101686.50;;;24.51;66.33
250;BME280;109;19.806;-70.704;2022-12-24T01:15:49;101681.25;;;24.48;66.07
250;BME280;109;19.806;-70.704;2022-12-24T01:18:29;101673.28;;;24.47;66.06
250;BME280;109;19.806;-70.704;2022-12-24T01:20:57;101683.88;;;24.50;65.92
250;BME280;109;19.806;-70.704;2022-12-24T01:23:38;101680.38;;;24.48;66.17
250;BME280;109;19.806;-70.704;2022-12-24T01:26:04;101687.25;;;24.55;65.83
250;BME280;109;19.806;-70.704;2022-12-24T01:28:44;101682.03;;;24.52;65.59
250;BME280;109;19.806;-70.704;2022-12-24T01:31:15;101687.31;;;24.53;65.78
250;BME280;109;19.806;-70.704;2022-12-24T01:34:02;101686.72;;;24.45;65.51
250;BME280;109;19.806;-70.704;2022-12-24T01:36:42;101682.44;;;24.41;65.76
250;BME280;109;19.806;-70.704;2022-12-24T01:39:23;101684.00;;;24.47;65.59
250;BME280;109;19.806;-70.704;2022-12-24T01:42:20;101683.13;;;24.46;65.38
250;BME280;109;19.806;-70.704;2022-12-24T01:45:46;101683.81;;;24.51;65.34
250;BME280;109;19.806;-70.704;2022-12-24T01:48:44;101684.75;;;24.50;65.15
250;BME280;109;19.806;-70.704;2022-12-24T01:51:36;101683.06;;;24.48;65.20
250;BME280;109;19.806;-70.704;2022-12-24T01:54:35;101678.53;;;24.50;65.19
250;BME280;109;19.806;-70.704;2022-12-24T01:57:25;101679.56;;;24.46;65.28
250;BME280;109;19.806;-70.704;2022-12-24T02:00:03;101670.56;;;24.48;64.96
250;BME280;109;19.806;-70.704;2022-12-24T02:02:46;101675.91;;;24.48;65.06
250;BME280;109;19.806;-70.704;2022-12-24T02:05:35;101685.63;;;24.51;65.14
250;BME280;109;19.806;-70.704;2022-12-24T02:08:19;101675.91;;;24.48;64.82
250;BME280;109;19.806;-70.704;2022-12-24T02:10:46;101675.69;;;24.54;64.98
250;BME280;109;19.806;-70.704;2022-12-24T02:13:28;101674.81;;;24.54;64.81
250;BME280;109;19.806;-70.704;2022-12-24T02:16:13;101686.59;;;24.48;64.92
250;BME280;109;19.806;-70.704;2022-12-24T02:19:02;101689.34;;;24.47;64.78
250;BME280;109;19.806;-70.704;2022-12-24T02:21:57;101685.06;;;24.43;64.74
250;BME280;109;19.806;-70.704;2022-12-24T02:25:00;101682.31;;;24.44;64.60
250;BME280;109;19.806;-70.704;2022-12-24T02:27:55;101687.94;;;24.36;64.80
250;BME280;109;19.806;-70.704;2022-12-24T02:30:40;101682.31;;;24.44;64.34
250;BME280;109;19.806;-70.704;2022-12-24T02:33:29;101685.94;;;24.43;64.54
250;BME280;109;19.806;-70.704;2022-12-24T02:39:13;101690.41;;;24.43;64.23
250;BME280;109;19.806;-70.704;2022-12-24T02:41:56;101683.38;;;24.40;64.45
250;BME280;109;19.806;-70.704;2022-12-24T02:47:26;101685.00;;;24.44;64.48
250;BME280;109;19.806;-70.704;2022-12-24T02:49:53;101686.84;;;24.42;64.85
250;BME280;109;19.806;-70.704;2022-12-24T02:52:35;101686.81;;;24.44;64.68
250;BME280;109;19.806;-70.704;2022-12-24T02:55:19;101681.63;;;24.39;64.43
250;BME280;109;19.806;-70.704;2022-12-24T03:04:25;101676.63;;;24.30;64.49
250;BME280;109;19.806;-70.704;2022-12-24T03:13:27;101670.09;;;24.37;64.21
250;BME280;109;19.806;-70.704;2022-12-24T03:16:04;101664.78;;;24.35;64.32
250;BME280;109;19.806;-70.704;2022-12-24T03:18:46;101664.16;;;24.29;64.28
250;BME280;109;19.806;-70.704;2022-12-24T03:21:19;101658.06;;;24.25;64.03
250;BME280;109;19.806;-70.704;2022-12-24T03:24:01;101666.84;;;24.29;64.28
250;BME280;109;19.806;-70.704;2022-12-24T03:26:29;101658.75;;;24.30;64.16
250;BME280;109;19.806;-70.704;2022-12-24T03:29:10;101664.06;;;24.32;64.12
250;BME280;109;19.806;-70.704;2022-12-24T03:32:00;101660.44;;;24.33;63.77
250;BME280;109;19.806;-70.704;2022-12-24T03:34:34;101657.94;;;24.28;64.22
250;BME280;109;19.806;-70.704;2022-12-24T03:37:22;101660.88;;;24.21;63.98
250;BME280;109;19.806;-70.704;2022-12-24T03:39:55;101666.28;;;24.19;64.09
250;BME280;109;19.806;-70.704;2022-12-24T03:42:35;101664.50;;;24.20;63.95
250;BME280;109;19.806;-70.704;2022-12-24T03:45:01;101659.97;;;24.22;64.07
250;BME280;109;19.806;-70.704;2022-12-24T03:47:42;101651.06;;;24.21;64.03
250;BME280;109;19.806;-70.704;2022-12-24T03:50:09;101658.22;;;24.21;63.71
250;BME280;109;19.806;-70.704;2022-12-24T03:52:49;101662.84;;;24.16;63.72
250;BME280;109;19.806;-70.704;2022-12-24T03:55:15;101663.84;;;24.13;63.70
250;BME280;109;19.806;-70.704;2022-12-24T03:57:55;101660.16;;;24.17;63.49
250;BME280;109;19.806;-70.704;2022-12-24T04:00:21;101653.00;;;24.18;63.46
250;BME280;109;19.806;-70.704;2022-12-24T04:03:09;101658.41;;;24.16;63.60
250;BME280;109;19.806;-70.704;2022-12-24T04:05:42;101645.06;;;24.15;63.72
250;BME280;109;19.806;-70.704;2022-12-24T04:08:22;101649.00;;;24.04;64.02
250;BME280;109;19.806;-70.704;2022-12-24T04:10:48;101639.56;;;23.94;63.84
250;BME280;109;19.806;-70.704;2022-12-24T04:13:28;101647.75;;;23.90;64.15
250;BME280;109;19.806;-70.704;2022-12-24T04:15:59;101638.19;;;23.83;64.11
250;BME280;109;19.806;-70.704;2022-12-24T04:18:42;101638.44;;;23.77;63.96
250;BME280;109;19.806;-70.704;2022-12-24T04:21:09;101647.44;;;23.74;64.13
250;BME280;109;19.806;-70.704;2022-12-24T04:23:49;101636.72;;;23.74;64.17
250;BME280;109;19.806;-70.704;2022-12-24T04:26:17;101633.19;;;23.74;64.42
250;BME280;109;19.806;-70.704;2022-12-24T04:28:56;101624.34;;;23.72;64.22
250;BME280;109;19.806;-70.704;2022-12-24T04:31:22;101635.00;;;23.73;64.06
250;BME280;109;19.806;-70.704;2022-12-24T04:34:03;101635.22;;;23.67;64.13
250;BME280;109;19.806;-70.704;2022-12-24T04:36:50;101627.41;;;23.61;64.34
250;BME280;109;19.806;-70.704;2022-12-24T04:39:23;101626.69;;;23.54;64.05
250;BME280;109;19.806;-70.704;2022-12-24T04:42:03;101620.38;;;23.57;64.06
250;BME280;109;19.806;-70.704;2022-12-24T04:44:30;101614.22;;;23.55;64.18
250;BME280;109;19.806;-70.704;2022-12-24T04:47:09;101614.16;;;23.56;64.00
250;BME280;109;19.806;-70.704;2022-12-24T04:49:35;101609.69;;;23.58;63.89
250;BME280;109;19.806;-70.704;2022-12-24T04:52:23;101611.53;;;23.55;63.97
250;BME280;109;19.806;-70.704;2022-12-24T04:54:56;101608.81;;;23.58;63.87
250;BME280;109;19.806;-70.704;2022-12-24T04:57:36;101613.47;;;23.51;64.32
250;BME280;109;19.806;-70.704;2022-12-24T05:00:04;101621.03;;;23.39;64.20
250;BME280;109;19.806;-70.704;2022-12-24T05:02:44;101611.38;;;23.34;64.36
250;BME280;109;19.806;-70.704;2022-12-24T05:05:10;101607.88;;;23.32;64.26
250;BME280;109;19.806;-70.704;2022-12-24T05:07:51;101605.97;;;23.36;64.13
250;BME280;109;19.806;-70.704;2022-12-24T05:10:18;101606.63;;;23.43;64.16
250;BME280;109;19.806;-70.704;2022-12-24T05:12:58;101604.13;;;23.38;64.15
250;BME280;109;19.806;-70.704;2022-12-24T05:15:25;101606.06;;;23.33;64.36
250;BME280;109;19.806;-70.704;2022-12-24T05:18:05;101594.63;;;23.29;64.25
250;BME280;109;19.806;-70.704;2022-12-24T05:20:32;101593.81;;;23.27;64.40
250;BME280;109;19.806;-70.704;2022-12-24T05:23:20;101600.09;;;23.26;64.13
250;BME280;109;19.806;-70.704;2022-12-24T05:29:11;101603.81;;;23.21;64.39
250;BME280;109;19.806;-70.704;2022-12-24T05:31:51;101602.22;;;23.15;64.46
250;BME280;109;19.806;-70.704;2022-12-24T05:34:17;101611.28;;;23.11;64.55
250;BME280;109;19.806;-70.704;2022-12-24T05:37:04;101612.31;;;23.07;64.20
250;BME280;109;19.806;-70.704;2022-12-24T05:39:44;101598.16;;;23.04;64.33
250;BME280;109;19.806;-70.704;2022-12-24T05:42:25;101607.97;;;23.03;64.55
250;BME280;109;19.806;-70.704;2022-12-24T05:44:51;101606.31;;;23.01;64.43
250;BME280;109;19.806;-70.704;2022-12-24T05:47:31;101613.41;;;23.02;64.44
250;BME280;109;19.806;-70.704;2022-12-24T05:49:58;101603.78;;;22.94;64.72
250;BME280;109;19.806;-70.704;2022-12-24T05:52:38;101592.25;;;22.94;64.60
250;BME280;109;19.806;-70.704;2022-12-24T05:55:05;101595.88;;;22.91;64.23
250;BME280;109;19.806;-70.704;2022-12-24T05:57:46;101593.44;;;22.85;64.54
250;BME280;109;19.806;-70.704;2022-12-24T06:00:13;101586.28;;;22.86;64.37
250;BME280;109;19.806;-70.704;2022-12-24T06:02:52;101584.69;;;22.80;64.35
250;BME280;109;19.806;-70.704;2022-12-24T06:05:18;101578.50;;;22.78;64.24
250;BME280;109;19.806;-70.704;2022-12-24T06:07:58;101571.59;;;22.73;64.38
250;BME280;109;19.806;-70.704;2022-12-24T06:10:25;101571.59;;;22.73;64.30
250;BME280;109;19.806;-70.704;2022-12-24T06:13:12;101568.19;;;22.68;64.20
250;BME280;109;19.806;-70.704;2022-12-24T06:15:45;101564.50;;;22.72;64.17
250;BME280;109;19.806;-70.704;2022-12-24T06:18:27;101570.06;;;22.64;64.44
250;BME280;109;19.806;-70.704;2022-12-24T06:20:54;101571.88;;;22.63;64.63
250;BME280;109;19.806;-70.704;2022-12-24T06:23:37;101565.78;;;22.60;64.24
250;BME280;109;19.806;-70.704;2022-12-24T06:26:05;101556.91;;;22.59;64.62
250;BME280;109;19.806;-70.704;2022-12-24T06:28:47;101556.94;;;22.58;64.80
250;BME280;109;19.806;-70.704;2022-12-24T06:31:27;101554.38;;;22.55;64.51
250;BME280;109;19.806;-70.704;2022-12-24T06:33:53;101553.38;;;22.59;64.39
250;BME280;109;19.806;-70.704;2022-12-24T06:36:40;101549.16;;;22.50;64.64
250;BME280;109;19.806;-70.704;2022-12-24T06:39:35;101557.28;;;22.47;64.37
250;BME280;109;19.806;-70.704;2022-12-24T06:42:14;101560.00;;;22.46;64.64
250;BME280;109;19.806;-70.704;2022-12-24T06:44:40;101558.38;;;22.40;64.72
250;BME280;109;19.806;-70.704;2022-12-24T06:47:21;101550.56;;;22.34;64.77
250;BME280;109;19.806;-70.704;2022-12-24T06:49:47;101555.03;;;22.34;64.43
250;BME280;109;19.806;-70.704;2022-12-24T06:52:27;101554.06;;;22.36;64.72
250;BME280;109;19.806;-70.704;2022-12-24T06:54:53;101549.88;;;22.27;64.26
250;BME280;109;19.806;-70.704;2022-12-24T06:57:34;101543.81;;;22.22;64.66
250;BME280;109;19.806;-70.704;2022-12-24T07:00:09;101542.94;;;22.22;64.33
250;BME280;109;19.806;-70.704;2022-12-24T07:02:49;101538.38;;;22.25;64.52
250;BME280;109;19.806;-70.704;2022-12-24T07:05:16;101539.44;;;22.20;64.57
250;BME280;109;19.806;-70.704;2022-12-24T07:07:55;101539.50;;;22.18;64.62
250;BME280;109;19.806;-70.704;2022-12-24T07:10:22;101528.69;;;22.23;64.86
250;BME280;109;19.806;-70.704;2022-12-24T07:13:02;101532.31;;;22.20;64.49
250;BME280;109;19.806;-70.704;2022-12-24T07:15:28;101534.03;;;22.23;64.26
250;BME280;109;19.806;-70.704;2022-12-24T07:18:10;101533.28;;;22.18;64.70
250;BME280;109;19.806;-70.704;2022-12-24T07:20:37;101538.56;;;22.19;64.85
250;BME280;109;19.806;-70.704;2022-12-24T07:23:17;101535.88;;;22.21;64.80
250;BME280;109;19.806;-70.704;2022-12-24T07:25:43;101530.69;;;22.15;64.58
250;BME280;109;19.806;-70.704;2022-12-24T07:28:23;101537.69;;;22.19;64.66
250;BME280;109;19.806;-70.704;2022-12-24T07:30:50;101539.53;;;22.17;64.38
250;BME280;109;19.806;-70.704;2022-12-24T07:33:29;101536.06;;;22.13;64.38
250;BME280;109;19.806;-70.704;2022-12-24T07:36:00;101535.19;;;22.13;64.59
250;BME280;109;19.806;-70.704;2022-12-24T07:38:47;101544.34;;;22.04;64.23
250;BME280;109;19.806;-70.704;2022-12-24T07:41:28;101549.59;;;22.07;64.21
250;BME280;109;19.806;-70.704;2022-12-24T07:43:54;101548.06;;;21.99;64.18
250;BME280;109;19.806;-70.704;2022-12-24T07:46:34;101534.75;;;21.99;64.13
250;BME280;109;19.806;-70.704;2022-12-24T07:49:00;101534.94;;;21.92;63.95
250;BME280;109;19.806;-70.704;2022-12-24T07:51:40;101534.31;;;21.84;63.90
250;BME280;109;19.806;-70.704;2022-12-24T07:54:06;101540.56;;;21.83;63.62
250;BME280;109;19.806;-70.704;2022-12-24T07:56:46;101537.13;;;21.78;63.94
250;BME280;109;19.806;-70.704;2022-12-24T07:59:13;101539.84;;;21.77;63.89
250;BME280;109;19.806;-70.704;2022-12-24T08:02:01;101541.59;;;21.78;64.08
250;BME280;109;19.806;-70.704;2022-12-24T08:04:34;101536.31;;;21.75;63.63
250;BME280;109;19.806;-70.704;2022-12-24T08:07:14;101539.00;;;21.73;63.63
250;BME280;109;19.806;-70.704;2022-12-24T08:09:40;101537.28;;;21.72;63.99
250;BME280;109;19.806;-70.704;2022-12-24T08:12:20;101540.00;;;21.71;63.58
250;BME280;109;19.806;-70.704;2022-12-24T08:14:47;101547.94;;;21.72;63.66
250;BME280;109;19.806;-70.704;2022-12-24T08:17:27;101542.75;;;21.68;63.31
250;BME280;109;19.806;-70.704;2022-12-24T08:19:54;101553.47;;;21.65;63.79
250;BME280;109;19.806;-70.704;2022-12-24T08:22:33;101551.75;;;21.62;63.83
250;BME280;109;19.806;-70.704;2022-12-24T08:24:59;101550.88;;;21.62;63.51
250;BME280;109;19.806;-70.704;2022-12-24T08:27:39;101555.34;;;21.61;63.41
250;BME280;109;19.806;-70.704;2022-12-24T08:30:06;101554.47;;;21.60;63.40
250;BME280;109;19.806;-70.704;2022-12-24T08:32:47;101549.84;;;21.67;63.27
250;BME280;109;19.806;-70.704;2022-12-24T08:35:14;101545.28;;;21.72;63.27
250;BME280;109;19.806;-70.704;2022-12-24T08:38:00;101546.03;;;21.77;62.86
250;BME280;109;19.806;-70.704;2022-12-24T08:40:41;101548.72;;;21.77;62.64
250;BME280;109;19.806;-70.704;2022-12-24T08:43:21;101553.16;;;21.77;63.07
250;BME280;109;19.806;-70.704;2022-12-24T08:45:48;101557.63;;;21.76;62.87
250;BME280;109;19.806;-70.704;2022-12-24T08:48:30;101562.22;;;21.70;62.80
250;BME280;109;19.806;-70.704;2022-12-24T08:50:57;101565.09;;;21.62;62.99
250;BME280;109;19.806;-70.704;2022-12-24T08:53:38;101562.53;;;21.59;63.31
250;BME280;109;19.806;-70.704;2022-12-24T08:56:18;101558.28;;;21.52;63.74
250;BME280;109;19.806;-70.704;2022-12-24T08:58:44;101562.84;;;21.47;63.33
250;BME280;109;19.806;-70.704;2022-12-24T09:01:24;101564.69;;;21.45;63.80
250;BME280;109;19.806;-70.704;2022-12-24T09:03:58;101565.47;;;21.48;63.65
250;BME280;109;19.806;-70.704;2022-12-24T09:06:38;101562.84;;;21.47;63.38
250;BME280;109;19.806;-70.704;2022-12-24T09:09:05;101563.81;;;21.44;63.92
250;BME280;109;19.806;-70.704;2022-12-24T09:11:45;101564.72;;;21.43;63.43
250;BME280;109;19.806;-70.704;2022-12-24T09:14:12;101562.84;;;21.47;63.57
250;BME280;109;19.806;-70.704;2022-12-24T09:16:51;101563.03;;;21.41;63.18
250;BME280;109;19.806;-70.704;2022-12-24T09:19:18;101571.03;;;21.39;63.39
250;BME280;109;19.806;-70.704;2022-12-24T09:21:58;101569.50;;;21.31;63.18
250;BME280;109;19.806;-70.704;2022-12-24T09:24:25;101573.97;;;21.30;63.30
250;BME280;109;19.806;-70.704;2022-12-24T09:27:04;101580.16;;;21.31;62.90
250;BME280;109;19.806;-70.704;2022-12-24T09:29:31;101580.22;;;21.28;62.94
250;BME280;109;19.806;-70.704;2022-12-24T09:32:13;101589.25;;;21.22;62.86
250;BME280;109;19.806;-70.704;2022-12-24T09:34:39;101584.91;;;21.19;62.80
250;BME280;109;19.806;-70.704;2022-12-24T09:37:27;101589.47;;;21.13;62.27
250;BME280;109;19.806;-70.704;2022-12-24T09:40:00;101587.63;;;21.16;62.46
250;BME280;109;19.806;-70.704;2022-12-24T09:42:53;101588.56;;;21.14;62.20
250;BME280;109;19.806;-70.704;2022-12-24T09:45:36;101595.59;;;21.18;62.11
250;BME280;109;19.806;-70.704;2022-12-24T09:48:20;101601.81;;;21.17;61.80
250;BME280;109;19.806;-70.704;2022-12-24T09:51:09;101595.44;;;21.22;61.74
250;BME280;109;19.806;-70.704;2022-12-24T09:54:02;101604.41;;;21.20;61.50
250;BME280;109;19.806;-70.704;2022-12-24T09:56:45;101611.53;;;21.19;61.79
250;BME280;109;19.806;-70.704;2022-12-24T09:59:22;101608.94;;;21.16;61.03
250;BME280;109;19.806;-70.704;2022-12-24T10:02:12;101609.88;;;21.12;61.78
250;BME280;109;19.806;-70.704;2022-12-24T10:04:46;101620.59;;;21.09;61.69
250;BME280;109;19.806;-70.704;2022-12-24T10:16:21;101627.75;;;21.07;62.03
250;BME280;109;19.806;-70.704;2022-12-24T10:25:17;101618.69;;;21.16;62.46
250;BME280;109;19.806;-70.704;2022-12-24T10:28:01;101622.28;;;21.15;62.55
250;BME280;109;19.806;-70.704;2022-12-24T10:30:37;101632.00;;;21.16;62.27
250;BME280;109;19.806;-70.704;2022-12-24T10:40:50;101645.88;;;20.92;63.15
250;BME280;109;19.806;-70.704;2022-12-24T10:43:32;101648.72;;;20.82;62.90
250;BME280;109;19.806;-70.704;2022-12-24T10:46:23;101651.22;;;20.90;63.18
250;BME280;109;19.806;-70.704;2022-12-24T10:49:14;101650.38;;;20.88;63.29
250;BME280;109;19.806;-70.704;2022-12-24T10:51:56;101662.00;;;20.84;63.24
250;BME280;109;19.806;-70.704;2022-12-24T10:55:19;101668.44;;;20.74;63.11
250;BME280;109;19.806;-70.704;2022-12-24T10:58:14;101662.25;;;20.73;62.49
250;BME280;109;19.806;-70.704;2022-12-24T11:00:56;101669.53;;;20.65;62.59
250;BME280;109;19.806;-70.704;2022-12-24T11:03:36;101669.69;;;20.58;62.72
250;BME280;109;19.806;-70.704;2022-12-24T11:06:15;101690.13;;;20.56;63.06
250;BME280;109;19.806;-70.704;2022-12-24T11:08:46;101689.38;;;20.50;62.53
250;BME280;109;19.806;-70.704;2022-12-24T11:11:18;101685.78;;;20.51;62.74
250;BME280;109;19.806;-70.704;2022-12-24T11:16:27;101703.53;;;20.51;62.73
250;BME280;109;19.806;-70.704;2022-12-24T11:18:59;101713.31;;;20.49;62.73
250;BME280;109;19.806;-70.704;2022-12-24T11:26:29;101723.09;;;20.48;61.98
250;BME280;109;19.806;-70.704;2022-12-24T11:29:23;101720.44;;;20.48;61.76
250;BME280;109;19.806;-70.704;2022-12-24T11:31:50;101727.53;;;20.46;61.87
250;BME280;109;19.806;-70.704;2022-12-24T11:34:30;101729.16;;;20.55;61.95
250;BME280;109;19.806;-70.704;2022-12-24T11:37:13;101733.63;;;20.55;61.84
250;BME280;109;19.806;-70.704;2022-12-24T11:39:53;101740.59;;;20.59;61.36
250;BME280;109;19.806;-70.704;2022-12-24T11:42:37;101730.78;;;20.62;61.77
250;BME280;109;19.806;-70.704;2022-12-24T11:45:17;101727.16;;;20.66;61.24
250;BME280;109;19.806;-70.704;2022-12-24T11:47:45;101729.78;;;20.68;61.29
250;BME280;109;19.806;-70.704;2022-12-24T11:50:29;101741.19;;;20.73;61.38
250;BME280;109;19.806;-70.704;2022-12-24T11:55:40;101746.22;;;20.86;61.37
250;BME280;109;19.806;-70.704;2022-12-24T11:58:27;101754.06;;;20.94;61.11
250;BME280;109;19.806;-70.704;2022-12-24T12:01:47;101752.97;;;21.03;61.16
250;BME280;109;19.806;-70.704;2022-12-24T12:03:53;101760.84;;;21.07;60.99
250;BME280;109;19.806;-70.704;2022-12-24T12:09:05;101766.63;;;21.28;61.17
250;BME280;109;19.806;-70.704;2022-12-24T12:11:34;101760.06;;;21.42;61.11
250;BME280;109;19.806;-70.704;2022-12-24T12:14:04;101765.13;;;21.53;60.74
250;BME280;109;19.806;-70.704;2022-12-24T12:19:49;101762.84;;;21.73;60.63
250;BME280;109;19.806;-70.704;2022-12-24T12:25:02;101774.78;;;21.94;60.72
250;BME280;109;19.806;-70.704;2022-12-24T12:27:42;101777.06;;;22.09;60.22
250;BME280;109;19.806;-70.704;2022-12-24T12:30:14;101779.25;;;22.26;60.02
250;BME280;109;19.806;-70.704;2022-12-24T12:32:52;101772.69;;;22.39;60.23
250;BME280;109;19.806;-70.704;2022-12-24T12:35:29;101784.75;;;22.54;59.78
250;BME280;109;19.806;-70.704;2022-12-24T12:38:05;101789.56;;;22.72;59.63
250;BME280;109;19.806;-70.704;2022-12-24T12:46:06;101797.34;;;23.11;57.32
250;BME280;109;19.806;-70.704;2022-12-24T12:48:48;101794.25;;;23.24;56.73
250;BME280;109;19.806;-70.704;2022-12-24T12:57:10;101798.56;;;23.84;56.12
250;BME280;109;19.806;-70.704;2022-12-24T13:00:09;101801.91;;;23.91;54.25
250;BME280;109;19.806;-70.704;2022-12-24T13:11:15;101819.28;;;24.30;52.25
250;BME280;109;19.806;-70.704;2022-12-24T13:14:16;101821.34;;;24.47;51.37
250;BME280;109;19.806;-70.704;2022-12-24T13:22:27;101835.72;;;24.69;50.61
250;BME280;109;19.806;-70.704;2022-12-24T13:24:54;101839.53;;;24.87;51.27
250;BME280;109;19.806;-70.704;2022-12-24T13:27:26;101842.94;;;24.92;50.73
250;BME280;109;19.806;-70.704;2022-12-24T13:29:58;101835.97;;;24.87;50.68
250;BME280;109;19.806;-70.704;2022-12-24T13:37:47;101846.88;;;25.29;50.59
250;BME280;109;19.806;-70.704;2022-12-24T13:40:24;101846.16;;;25.24;49.51
250;BME280;109;19.806;-70.704;2022-12-24T13:43:06;101848.47;;;25.34;49.39
250;BME280;109;19.806;-70.704;2022-12-24T13:45:41;101848.22;;;25.17;51.29
250;BME280;109;19.806;-70.704;2022-12-24T13:50:39;101842.75;;;25.20;51.99
250;BME280;109;19.806;-70.704;2022-12-24T13:53:40;101837.72;;;25.36;52.52
250;BME280;109;19.806;-70.704;2022-12-24T13:58:43;101838.31;;;25.42;52.89
250;BME280;109;19.806;-70.704;2022-12-24T14:01:14;101833.03;;;25.41;54.09
250;BME280;109;19.806;-70.704;2022-12-24T14:03:51;101833.66;;;25.48;53.86
250;BME280;109;19.806;-70.704;2022-12-24T14:08:48;101831.72;;;25.51;53.57
250;BME280;109;19.806;-70.704;2022-12-24T14:11:23;101832.03;;;25.65;54.21
250;BME280;109;19.806;-70.704;2022-12-24T14:16:27;101829.97;;;25.72;53.81
250;BME280;109;19.806;-70.704;2022-12-24T14:19:12;101829.97;;;25.72;53.86
250;BME280;109;19.806;-70.704;2022-12-24T14:24:20;101820.75;;;25.79;54.26
250;BME280;109;19.806;-70.704;2022-12-24T14:26:54;101818.25;;;25.96;54.57
250;BME280;109;19.806;-70.704;2022-12-24T14:29:26;101812.22;;;25.91;54.29
250;BME280;109;19.806;-70.704;2022-12-24T14:31:56;101812.31;;;25.88;54.36
250;BME280;109;19.806;-70.704;2022-12-24T14:34:23;101807.13;;;25.85;53.94
250;BME280;109;19.806;-70.704;2022-12-24T14:36:53;101801.63;;;26.08;54.84
250;BME280;109;19.806;-70.704;2022-12-24T14:39:32;101803.44;;;26.08;53.83
250;BME280;109;19.806;-70.704;2022-12-24T14:47:51;101802.84;;;26.22;53.57
250;BME280;109;19.806;-70.704;2022-12-24T14:55:51;101796.81;;;26.16;54.49
250;BME280;109;19.806;-70.704;2022-12-24T14:58:24;101794.75;;;26.23;54.52
250;BME280;109;19.806;-70.704;2022-12-24T15:00:53;101783.53;;;26.34;53.23
250;BME280;109;19.806;-70.704;2022-12-24T15:03:22;101785.19;;;26.36;52.27
250;BME280;109;19.806;-70.704;2022-12-24T15:06:01;101782.50;;;26.57;53.04
250;BME280;109;19.806;-70.704;2022-12-24T15:08:58;101776.06;;;26.61;51.09
250;BME280;109;19.806;-70.704;2022-12-24T15:11:25;101781.25;;;26.65;52.11
250;BME280;109;19.806;-70.704;2022-12-24T15:13:58;101771.50;;;26.81;51.38
250;BME280;109;19.806;-70.704;2022-12-24T15:16:29;101775.19;;;26.79;49.80
250;BME280;109;19.806;-70.704;2022-12-24T15:18:58;101772.09;;;26.69;49.59
250;BME280;109;19.806;-70.704;2022-12-24T15:23:57;101763.97;;;26.90;50.13
250;BME280;109;19.806;-70.704;2022-12-24T15:26:27;101772.19;;;26.86;50.00
250;BME280;109;19.806;-70.704;2022-12-24T15:28:57;101765.31;;;27.00;50.11
250;BME280;109;19.806;-70.704;2022-12-24T15:31:25;101771.56;;;27.00;50.28
250;BME280;109;19.806;-70.704;2022-12-24T15:33:54;101770.09;;;26.93;49.14
250;BME280;109;19.806;-70.704;2022-12-24T15:36:36;101766.69;;;27.08;51.13
250;BME280;109;19.806;-70.704;2022-12-24T15:39:11;101767.91;;;27.20;51.28
250;BME280;109;19.806;-70.704;2022-12-24T15:41:41;101770.09;;;27.31;51.41
250;BME280;109;19.806;-70.704;2022-12-24T15:44:32;101768.63;;;27.42;51.56
250;BME280;109;19.806;-70.704;2022-12-24T15:47:01;101774.66;;;27.29;51.31
250;BME280;109;19.806;-70.704;2022-12-24T15:49:30;101763.19;;;27.25;50.58
250;BME280;109;19.806;-70.704;2022-12-24T15:52:07;101766.34;;;27.33;51.25
250;BME280;109;19.806;-70.704;2022-12-24T15:54:34;101761.38;;;27.26;50.84
250;BME280;109;19.806;-70.704;2022-12-24T15:57:25;101759.91;;;27.18;51.66
250;BME280;109;19.806;-70.704;2022-12-24T15:59:56;101755.13;;;27.25;51.46